createdAt,value
2022-08-07T00:01:06.370Z,98.6
2022-08-07T00:02:16.472Z,99.1
2022-08-07T00:03:25.627Z,98.2
2022-08-07T00:04:34.999Z,97.9
2022-08-07T00:05:44.881Z,98.1
2022-08-07T00:06:55.000Z,98.2
2022-08-07T00:08:05.358Z,98.5
2022-08-07T00:09:15.232Z,98.6
2022-08-07T00:11:35.700Z,99
2022-08-07T00:12:45.586Z,98.9
2022-08-07T00:13:55.696Z,99.1
2022-08-07T00:15:05.819Z,98.5
2022-08-07T00:16:16.276Z,98.6
2022-08-07T00:17:26.046Z,99
2022-08-07T00:18:36.413Z,99.1
2022-08-07T00:19:45.311Z,99.2
2022-08-07T00:20:55.416Z,99
2022-08-07T00:22:05.531Z,98.5
2022-08-07T00:23:15.655Z,98.8
2022-08-07T00:25:35.882Z,99.1
2022-08-07T00:26:45.041Z,98.9
2022-08-07T00:27:54.405Z,99.1
2022-08-07T00:29:04.522Z,98.8
2022-08-07T00:30:14.400Z,98.5
2022-08-07T00:31:24.525Z,98.7
2022-08-07T00:32:34.626Z,99
2022-08-07T00:33:44.753Z,99.5
2022-08-07T00:34:54.877Z,99.3
2022-08-07T00:36:05.228Z,99.2
2022-08-07T00:37:15.100Z,99.1
2022-08-07T00:38:25.459Z,98.9
2022-08-07T00:39:34.611Z,99
2022-08-07T00:40:43.491Z,99.1
2022-08-07T00:41:53.607Z,99.2
2022-08-07T00:43:03.734Z,99.1
2022-08-07T00:44:13.853Z,99.1
2022-08-07T00:46:34.081Z,99.6
2022-08-07T00:47:44.209Z,99.4
2022-08-07T00:48:54.313Z,99.3
2022-08-07T00:51:14.800Z,99
2022-08-07T00:53:35.031Z,98.9
2022-08-07T00:54:44.915Z,98.7
2022-08-07T00:55:54.063Z,98.4
2022-08-07T00:58:13.314Z,98.5
2022-08-07T00:59:23.423Z,99
2022-08-07T01:00:33.532Z,99.2
2022-08-07T01:01:43.654Z,99.3
2022-08-07T01:02:54.019Z,98.7
2022-08-07T01:04:03.903Z,98.8
2022-08-07T01:05:14.010Z,99.3
2022-08-07T01:07:34.245Z,99.3
2022-08-07T01:08:44.368Z,99.7
2022-08-07T01:09:54.490Z,99.4
2022-08-07T01:11:04.844Z,99.6
2022-08-07T01:12:13.733Z,100
2022-08-07T01:14:33.960Z,100
2022-08-07T01:15:43.354Z,100
2022-08-07T01:16:52.488Z,100
2022-08-07T01:18:02.368Z,100
2022-08-07T01:19:12.719Z,99.8
2022-08-07T01:21:32.719Z,99.6
2022-08-07T01:22:42.841Z,100
2022-08-07T01:23:52.947Z,100
2022-08-07T01:25:03.068Z,100
2022-08-07T01:26:13.186Z,100
2022-08-07T01:27:23.305Z,100
2022-08-07T01:28:33.670Z,100
2022-08-07T01:30:53.900Z,99.2
2022-08-07T01:32:02.757Z,99.4
2022-08-07T01:33:12.885Z,99.5
2022-08-07T01:34:22.999Z,98.9
2022-08-07T01:35:33.000Z,98.9
2022-08-07T01:36:43.231Z,99.3
2022-08-07T01:39:03.458Z,99.9
2022-08-07T01:40:13.856Z,100
2022-08-07T01:42:34.082Z,100
2022-08-07T01:43:43.939Z,100
2022-08-07T01:44:54.046Z,100
2022-08-07T01:46:04.170Z,98.7
2022-08-07T01:47:13.295Z,98.6
2022-08-07T01:48:23.420Z,99
2022-08-07T01:49:33.537Z,98.9
2022-08-07T01:50:43.661Z,98.5
2022-08-07T01:51:54.043Z,98.9
2022-08-07T01:53:03.887Z,99.8
2022-08-07T01:54:14.014Z,100
2022-08-07T01:56:34.251Z,99.9
2022-08-07T01:57:44.360Z,99.2
2022-08-07T01:58:54.476Z,98.8
2022-08-07T02:00:04.604Z,98.4
2022-08-07T02:01:14.710Z,97.8
2022-08-07T02:03:34.233Z,98.8
2022-08-07T02:04:44.089Z,99.1
2022-08-07T02:05:54.469Z,99.5
2022-08-07T02:07:04.322Z,99.9
2022-08-07T02:08:14.435Z,99.7
2022-08-07T02:09:24.561Z,99.7
2022-08-07T02:10:34.671Z,99.8
2022-08-07T02:11:44.782Z,99.8
2022-08-07T02:12:54.909Z,99.9
2022-08-07T02:14:05.034Z,99.9
2022-08-07T02:15:15.416Z,99.8
2022-08-07T02:16:25.259Z,99.7
2022-08-07T02:17:34.389Z,99.8
2022-08-07T02:18:44.520Z,99.9
2022-08-07T02:19:54.637Z,99.8
2022-08-07T02:21:03.772Z,99.8
2022-08-07T02:22:12.911Z,99.5
2022-08-07T02:24:33.151Z,98.9
2022-08-07T02:25:43.256Z,98.8
2022-08-07T02:26:53.651Z,99.5
2022-08-07T02:28:03.490Z,99.9
2022-08-07T02:29:13.612Z,99.9
2022-08-07T02:30:23.733Z,99.7
2022-08-07T02:31:33.843Z,99.7
2022-08-07T02:32:43.966Z,99.8
2022-08-07T02:33:54.350Z,99.8
2022-08-07T02:35:04.204Z,99.8
2022-08-07T02:36:14.323Z,99.7
2022-08-07T02:37:23.452Z,99.5
2022-08-07T02:38:33.564Z,99.6
2022-08-07T02:39:43.689Z,99.8
2022-08-07T02:40:53.799Z,100
2022-08-07T02:42:03.922Z,99.9
2022-08-07T02:43:14.050Z,100
2022-08-07T02:45:34.279Z,100
2022-08-07T02:46:44.404Z,100
2022-08-07T02:47:54.509Z,100
2022-08-07T02:50:14.048Z,99.8
2022-08-07T02:52:33.028Z,99.7
2022-08-07T02:54:52.281Z,99.4
2022-08-07T02:56:01.436Z,98.7
2022-08-07T02:57:10.553Z,98.4
2022-08-07T02:59:30.799Z,99
2022-08-07T03:00:40.909Z,99.5
2022-08-07T03:01:51.304Z,99.7
2022-08-07T03:03:01.146Z,99.5
2022-08-07T03:04:11.265Z,99.6
2022-08-07T03:05:21.654Z,99.8
2022-08-07T03:06:31.499Z,99.7
2022-08-07T03:07:41.627Z,99
2022-08-07T03:08:51.736Z,98.8
2022-08-07T03:10:01.858Z,98.8
2022-08-07T03:11:11.968Z,98.4
2022-08-07T03:12:21.106Z,98.8
2022-08-07T03:13:31.499Z,99.2
2022-08-07T03:14:41.341Z,99.2
2022-08-07T03:15:51.462Z,99.1
2022-08-07T03:17:01.565Z,99.2
2022-08-07T03:18:11.683Z,99.3
2022-08-07T03:19:21.812Z,99.7
2022-08-07T03:20:31.921Z,99.7
2022-08-07T03:21:41.079Z,99.3
2022-08-07T03:22:50.199Z,99.1
2022-08-07T03:24:00.326Z,99.2
2022-08-07T03:25:10.714Z,99.8
2022-08-07T03:26:20.560Z,100
2022-08-07T03:27:30.681Z,100
2022-08-07T03:28:40.788Z,99.9
2022-08-07T03:29:50.907Z,99.6
2022-08-07T03:31:01.290Z,99.6
2022-08-07T03:32:11.145Z,99.2
2022-08-07T03:34:31.650Z,100
2022-08-07T03:35:41.491Z,100
2022-08-07T03:36:51.893Z,100
2022-08-07T03:38:00.744Z,99.9
2022-08-07T03:39:10.870Z,99.8
2022-08-07T03:41:31.107Z,99.9
2022-08-07T03:42:40.253Z,100
2022-08-07T03:43:49.390Z,100
2022-08-07T03:44:59.769Z,100
2022-08-07T03:46:09.613Z,100
2022-08-07T03:48:30.132Z,100
2022-08-07T03:49:39.967Z,99.9
2022-08-07T03:50:50.360Z,100
2022-08-07T03:52:00.203Z,100
2022-08-07T03:53:10.333Z,99.8
2022-08-07T03:55:30.562Z,100
2022-08-07T03:56:40.939Z,100
2022-08-07T03:57:50.806Z,100
2022-08-07T03:58:59.918Z,100
2022-08-07T04:00:10.314Z,100
2022-08-07T04:02:30.284Z,100
2022-08-07T04:03:40.401Z,100
2022-08-07T04:04:50.510Z,100
2022-08-07T04:06:00.638Z,100
2022-08-07T04:07:10.745Z,100
2022-08-07T04:09:31.267Z,99.7
2022-08-07T04:10:41.376Z,99
2022-08-07T04:11:51.502Z,98.8
2022-08-07T04:13:01.348Z,98.7
2022-08-07T04:14:10.467Z,98.7
2022-08-07T04:16:30.987Z,99.6
2022-08-07T04:17:40.824Z,100
2022-08-07T04:18:50.953Z,100
2022-08-07T04:20:01.068Z,100
2022-08-07T04:21:11.472Z,100
2022-08-07T04:22:21.563Z,100
2022-08-07T04:23:31.678Z,100
2022-08-07T04:24:41.797Z,100
2022-08-07T04:25:51.647Z,100
2022-08-07T04:27:02.036Z,100
2022-08-07T04:28:11.887Z,100
2022-08-07T04:29:21.287Z,100
2022-08-07T04:30:31.130Z,100
2022-08-07T04:31:41.257Z,100
2022-08-07T04:32:51.644Z,100
2022-08-07T04:34:00.519Z,100
2022-08-07T04:35:09.935Z,100
2022-08-07T04:37:29.893Z,99.9
2022-08-07T04:38:40.016Z,99.8
2022-08-07T04:39:50.125Z,99.5
2022-08-07T04:41:00.523Z,99.7
2022-08-07T04:42:10.359Z,99.7
2022-08-07T04:43:20.748Z,99.6
2022-08-07T04:44:30.596Z,99.3
2022-08-07T04:45:40.978Z,99.3
2022-08-07T04:46:51.099Z,99.5
2022-08-07T04:48:01.212Z,99.3
2022-08-07T04:49:11.063Z,99.2
2022-08-07T04:50:20.200Z,98.8
2022-08-07T04:51:30.590Z,98.5
2022-08-07T04:52:40.428Z,97.7
2022-08-07T04:53:50.559Z,98
2022-08-07T04:55:00.668Z,97.3
2022-08-07T04:56:11.066Z,96.5
2022-08-07T04:58:31.285Z,95.2
2022-08-07T04:59:41.133Z,96.7
2022-08-07T05:00:51.261Z,96.1
2022-08-07T05:02:00.665Z,96.8
2022-08-07T05:03:09.541Z,95.9
2022-08-07T05:05:29.777Z,95.5
2022-08-07T05:06:39.880Z,94.7
2022-08-07T05:07:49.995Z,92.4
2022-08-07T05:09:00.121Z,92.7
2022-08-07T05:10:09.256Z,92.6
2022-08-07T05:11:19.383Z,92.4
2022-08-07T05:12:29.488Z,92.4
2022-08-07T05:13:39.613Z,92.8
2022-08-07T05:14:49.740Z,91.8
2022-08-07T05:15:59.840Z,91.5
2022-08-07T05:17:09.956Z,91.1
2022-08-07T05:19:30.209Z,91.3
2022-08-07T05:20:39.343Z,90.3
2022-08-07T05:21:48.483Z,90.2
2022-08-07T05:22:58.860Z,90.3
2022-08-07T05:26:28.945Z,90.3
2022-08-07T05:27:39.068Z,90.3
2022-08-07T05:28:49.452Z,89.6
2022-08-07T05:33:29.651Z,90.4
2022-08-07T05:34:39.778Z,88.7
2022-08-07T05:35:49.893Z,89.5
2022-08-07T05:36:59.021Z,88.4
2022-08-07T05:38:09.140Z,88.2
2022-08-07T05:39:18.283Z,87.7
2022-08-07T05:40:27.422Z,87.7
2022-08-07T05:41:37.546Z,87.6
2022-08-07T05:42:47.926Z,87.4
2022-08-07T05:43:57.766Z,88.4
2022-08-07T05:45:07.903Z,88
2022-08-07T05:46:18.275Z,87.9
2022-08-07T05:47:28.119Z,87.3
2022-08-07T05:48:38.248Z,87.3
2022-08-07T05:49:48.373Z,87.5
2022-08-07T05:50:58.743Z,88
2022-08-07T05:52:07.623Z,87.1
2022-08-07T05:54:27.141Z,86.7
2022-08-07T05:55:37.001Z,87.2
2022-08-07T05:56:47.102Z,86.2
2022-08-07T05:57:57.233Z,86.3
2022-08-07T05:59:07.339Z,85.7
2022-08-07T06:01:27.856Z,85.5
2022-08-07T06:02:37.697Z,85.8
2022-08-07T06:03:47.823Z,86.5
2022-08-07T06:04:57.927Z,86.1
2022-08-07T06:06:08.054Z,86.2
2022-08-07T06:08:28.293Z,84.7
2022-08-07T06:09:37.427Z,84.3
2022-08-07T06:10:46.568Z,84.2
2022-08-07T06:11:56.683Z,85.1
2022-08-07T06:13:06.808Z,83.8
2022-08-07T06:15:27.315Z,81.7
2022-08-07T06:16:37.157Z,82
2022-08-07T06:17:47.541Z,81.8
2022-08-07T06:18:57.400Z,82.3
2022-08-07T06:20:07.509Z,82
2022-08-07T06:21:17.894Z,82
2022-08-07T06:22:27.743Z,79.5
2022-08-07T06:23:37.851Z,81.6
2022-08-07T06:24:47.986Z,81.4
2022-08-07T06:25:57.369Z,81.8
2022-08-07T06:27:07.226Z,80.2
2022-08-07T06:28:17.346Z,79
2022-08-07T06:29:27.726Z,78.6
2022-08-07T06:30:37.581Z,79.7
2022-08-07T06:31:47.708Z,79.6
2022-08-07T06:32:57.819Z,77.8
2022-08-07T06:34:07.941Z,78.2
2022-08-07T06:35:17.082Z,77.3
2022-08-07T06:36:26.217Z,77.2
2022-08-07T06:37:36.591Z,76.3
2022-08-07T06:38:46.441Z,75.9
2022-08-07T06:39:56.568Z,76.6
2022-08-07T06:41:06.958Z,76.7
2022-08-07T06:42:17.063Z,76.8
2022-08-07T06:43:26.927Z,75.8
2022-08-07T06:44:37.030Z,75.6
2022-08-07T06:45:47.158Z,75.5
2022-08-07T06:46:57.264Z,73.9
2022-08-07T06:48:06.422Z,74.2
2022-08-07T06:50:25.932Z,72.2
2022-08-07T06:51:36.043Z,74
2022-08-07T06:52:46.161Z,72.9
2022-08-07T06:53:56.026Z,72.9
2022-08-07T06:57:26.631Z,71.3
2022-08-07T06:58:36.489Z,71.3
2022-08-07T06:59:46.615Z,71.9
2022-08-07T07:00:56.726Z,71.3
2022-08-07T07:02:06.834Z,71
2022-08-07T07:04:27.073Z,72.8
2022-08-07T07:05:36.222Z,72.2
2022-08-07T07:06:45.359Z,71.6
2022-08-07T07:07:55.469Z,71.7
2022-08-07T07:09:05.593Z,71
2022-08-07T07:11:25.830Z,69.3
2022-08-07T07:12:35.938Z,67.8
2022-08-07T07:13:46.051Z,70
2022-08-07T07:14:56.172Z,69.3
2022-08-07T07:16:06.300Z,68.6
2022-08-07T07:17:16.680Z,69.8
2022-08-07T07:18:26.537Z,69.9
2022-08-07T07:19:36.644Z,68.6
2022-08-07T07:20:46.771Z,69
2022-08-07T07:21:55.891Z,67.8
2022-08-07T07:23:06.016Z,67.1
2022-08-07T07:24:16.144Z,68.4
2022-08-07T07:25:26.249Z,67.9
2022-08-07T07:26:36.379Z,69.5
2022-08-07T07:27:46.496Z,68
2022-08-07T07:28:56.867Z,68.2
2022-08-07T07:30:06.985Z,66.4
2022-08-07T07:31:15.876Z,64.3
2022-08-07T07:32:25.009Z,65
2022-08-07T07:33:35.115Z,64.9
2022-08-07T07:34:45.249Z,66.4
2022-08-07T07:35:55.353Z,66.5
2022-08-07T07:37:05.481Z,65.2
2022-08-07T07:38:15.852Z,64.2
2022-08-07T07:39:25.715Z,62.8
2022-08-07T07:40:35.825Z,64.3
2022-08-07T07:41:45.947Z,63.6
2022-08-07T07:42:56.331Z,62.8
2022-08-07T07:44:06.174Z,66.2
2022-08-07T07:45:16.293Z,64.2
2022-08-07T07:46:26.421Z,65.3
2022-08-07T07:47:35.556Z,63.9
2022-08-07T07:49:55.783Z,61.3
2022-08-07T07:51:05.894Z,58.8
2022-08-07T07:52:16.030Z,60.8
2022-08-07T07:53:26.137Z,60.9
2022-08-07T07:54:36.247Z,61
2022-08-07T07:55:46.373Z,60.9
2022-08-07T07:56:56.497Z,62.7
2022-08-07T07:58:06.603Z,60.1
2022-08-07T07:59:16.723Z,60
2022-08-07T08:01:36.969Z,60.1
2022-08-07T08:02:46.105Z,58.8
2022-08-07T08:03:56.220Z,58.4
2022-08-07T08:05:06.323Z,58.7
2022-08-07T08:07:26.572Z,56.5
2022-08-07T08:08:35.722Z,56.9
2022-08-07T08:09:44.853Z,57.5
2022-08-07T08:10:54.969Z,56
2022-08-07T08:12:05.072Z,56.5
2022-08-07T08:14:25.321Z,58.6
2022-08-07T08:15:35.697Z,57.4
2022-08-07T08:16:45.547Z,57.7
2022-08-07T08:17:55.679Z,58.5
2022-08-07T08:19:05.783Z,56.6
2022-08-07T08:20:15.909Z,56.2
2022-08-07T08:21:26.033Z,56
2022-08-07T08:22:36.145Z,58.7
2022-08-07T08:23:46.253Z,59.2
2022-08-07T08:24:55.385Z,58.6
2022-08-07T08:26:05.774Z,57.5
2022-08-07T08:27:15.623Z,57.6
2022-08-07T08:28:26.005Z,56.2
2022-08-07T08:29:35.873Z,54.9
2022-08-07T08:30:45.983Z,54.8
2022-08-07T08:31:56.366Z,57.2
2022-08-07T08:33:06.229Z,55.7
2022-08-07T08:35:25.489Z,56.4
2022-08-07T08:36:34.872Z,57.6
2022-08-07T08:37:44.989Z,55.4
2022-08-07T08:38:53.865Z,55.3
2022-08-07T08:40:03.264Z,56.3
2022-08-07T08:42:23.243Z,53.5
2022-08-07T08:43:33.364Z,53
2022-08-07T08:44:43.489Z,52.5
2022-08-07T08:47:03.708Z,52.3
2022-08-07T08:49:23.956Z,55.1
2022-08-07T08:50:34.075Z,50
2022-08-07T08:51:44.452Z,49.2
2022-08-07T08:52:54.300Z,50.5
2022-08-07T08:54:04.424Z,49.9
2022-08-07T08:56:23.678Z,50.4
2022-08-07T08:57:32.838Z,52.4
2022-08-07T08:58:42.225Z,49.2
2022-08-07T08:59:52.077Z,48.3
2022-08-07T09:01:02.204Z,51.8
2022-08-07T09:04:32.548Z,50.2
2022-08-07T09:05:41.702Z,49.2
2022-08-07T09:06:51.803Z,51
2022-08-07T09:08:01.934Z,50.4
2022-08-07T09:09:12.039Z,50.7
2022-08-07T09:10:22.168Z,49.8
2022-08-07T09:11:32.274Z,49.9
2022-08-07T09:12:41.422Z,49.8
2022-08-07T09:13:50.559Z,50.2
2022-08-07T09:15:00.685Z,50.2
2022-08-07T09:16:10.785Z,51.9
2022-08-07T09:17:20.913Z,50.9
2022-08-07T09:18:31.037Z,47.8
2022-08-07T09:19:41.141Z,48.9
2022-08-07T09:20:51.270Z,47.1
2022-08-07T09:22:01.376Z,48.1
2022-08-07T09:23:11.508Z,47
2022-08-07T09:24:21.625Z,48.1
2022-08-07T09:25:30.754Z,46.5
2022-08-07T09:26:39.892Z,46.6
2022-08-07T09:27:50.003Z,47.4
2022-08-07T09:29:00.124Z,47.7
2022-08-07T09:30:10.249Z,47.5
2022-08-07T09:31:20.356Z,49.1
2022-08-07T09:32:30.480Z,48.5
2022-08-07T09:33:40.604Z,47.2
2022-08-07T09:34:50.711Z,48.9
2022-08-07T09:36:00.833Z,47
2022-08-07T09:37:10.959Z,47.9
2022-08-07T09:38:20.090Z,43.5
2022-08-07T09:39:29.222Z,45.2
2022-08-07T09:40:39.349Z,45.4
2022-08-07T09:42:59.585Z,45.9
2022-08-07T09:45:19.813Z,45.5
2022-08-07T09:46:30.196Z,44.7
2022-08-07T09:47:40.058Z,44.7
2022-08-07T09:48:50.165Z,44.8
2022-08-07T09:50:00.290Z,49.2
2022-08-07T09:51:10.410Z,49.7
2022-08-07T09:52:20.523Z,47.8
2022-08-07T09:53:29.928Z,48.8
2022-08-07T09:54:38.796Z,49.2
2022-08-07T09:55:48.924Z,47.4
2022-08-07T09:56:59.031Z,50.2
2022-08-07T09:59:19.271Z,47.4
2022-08-07T10:00:29.393Z,46.6
2022-08-07T10:01:39.776Z,48.5
2022-08-07T10:02:49.624Z,48
2022-08-07T10:03:59.750Z,50.4
2022-08-07T10:06:19.977Z,52.4
2022-08-07T10:07:30.100Z,47.4
2022-08-07T10:08:39.238Z,46.9
2022-08-07T10:09:48.373Z,47.1
2022-08-07T10:10:58.501Z,47.8
2022-08-07T10:13:18.000Z,48.9
2022-08-07T10:14:28.853Z,48
2022-08-07T10:15:39.223Z,50.1
2022-08-07T10:16:49.089Z,49.6
2022-08-07T10:17:59.200Z,49.6
2022-08-07T10:19:09.329Z,49.2
2022-08-07T10:20:19.436Z,48.4
2022-08-07T10:21:29.565Z,49.6
2022-08-07T10:22:39.673Z,49.2
2022-08-07T10:23:49.798Z,47.2
2022-08-07T10:24:58.932Z,48.4
2022-08-07T10:27:19.158Z,45.8
2022-08-07T10:28:29.288Z,47.8
2022-08-07T10:29:39.397Z,45.4
2022-08-07T10:30:49.523Z,46.9
2022-08-07T10:31:59.632Z,43.6
2022-08-07T10:33:09.754Z,45
2022-08-07T10:34:19.875Z,45
2022-08-07T10:35:29.975Z,41.6
2022-08-07T10:36:40.363Z,44.3
2022-08-07T10:38:59.359Z,44.4
2022-08-07T10:41:18.620Z,41.9
2022-08-07T10:42:28.743Z,43.5
2022-08-07T10:43:38.860Z,43.3
2022-08-07T10:44:48.964Z,45
2022-08-07T10:45:59.345Z,46.2
2022-08-07T10:48:19.326Z,47.4
2022-08-07T10:49:29.430Z,47
2022-08-07T10:50:39.559Z,45.8
2022-08-07T10:51:49.684Z,47.9
2022-08-07T10:52:59.794Z,47
2022-08-07T10:54:09.917Z,44.2
2022-08-07T10:55:19.038Z,45.2
2022-08-07T10:56:29.166Z,44.1
2022-08-07T10:57:39.274Z,42.7
2022-08-07T10:58:49.398Z,40.5
2022-08-07T10:59:59.771Z,41.4
2022-08-07T11:01:09.627Z,42.6
2022-08-07T11:02:19.745Z,42.9
2022-08-07T11:03:29.869Z,39
2022-08-07T11:04:39.975Z,42.1
2022-08-07T11:05:49.120Z,38
2022-08-07T11:06:58.256Z,39.6
2022-08-07T11:09:18.495Z,37.4
2022-08-07T11:10:28.615Z,38.4
2022-08-07T11:11:38.721Z,39.9
2022-08-07T11:12:48.844Z,40.8
2022-08-07T11:13:58.963Z,38.4
2022-08-07T11:15:09.091Z,41.9
2022-08-07T11:16:19.206Z,40.6
2022-08-07T11:17:29.591Z,37.2
2022-08-07T11:18:39.434Z,37.8
2022-08-07T11:19:49.544Z,40.4
2022-08-07T11:20:59.669Z,44.8
2022-08-07T11:23:18.919Z,46.1
2022-08-07T11:24:28.059Z,38.8
2022-08-07T11:25:37.455Z,40.4
2022-08-07T11:26:47.317Z,41.5
2022-08-07T11:27:57.686Z,40.8
2022-08-07T11:30:17.924Z,43.7
2022-08-07T11:31:27.780Z,43.9
2022-08-07T11:32:37.901Z,39.4
2022-08-07T11:33:48.021Z,37.2
2022-08-07T11:34:58.391Z,41.2
2022-08-07T11:36:08.251Z,39.1
2022-08-07T11:37:18.631Z,38.1
2022-08-07T11:38:28.484Z,40.4
2022-08-07T11:39:38.603Z,38.8
2022-08-07T11:40:47.737Z,38.9
2022-08-07T11:41:57.861Z,38.3
2022-08-07T11:44:18.098Z,39.5
2022-08-07T11:45:28.469Z,38.8
2022-08-07T11:46:38.326Z,40.2
2022-08-07T11:47:48.440Z,42.9
2022-08-07T11:48:58.567Z,42.7
2022-08-07T11:51:18.800Z,42.3
2022-08-07T11:52:28.905Z,45
2022-08-07T11:53:39.034Z,44.3
2022-08-07T11:54:49.145Z,44.7
2022-08-07T11:55:58.273Z,43.7
2022-08-07T11:57:08.398Z,43.8
2022-08-07T11:58:18.507Z,44
2022-08-07T11:59:28.632Z,42.7
2022-08-07T12:00:38.751Z,43.9
2022-08-07T12:01:49.123Z,45.3
2022-08-07T12:02:58.987Z,47.1
2022-08-07T12:05:19.228Z,46.5
2022-08-07T12:06:29.348Z,44.4
2022-08-07T12:07:39.458Z,43.6
2022-08-07T12:08:49.580Z,44.6
2022-08-07T12:09:59.685Z,46.9
2022-08-07T12:12:18.947Z,47.9
2022-08-07T12:13:29.313Z,47.7
2022-08-07T12:14:39.173Z,49.7
2022-08-07T12:15:49.295Z,49
2022-08-07T12:16:59.401Z,50.2
2022-08-07T12:18:09.528Z,50
2022-08-07T12:19:19.634Z,47
2022-08-07T12:20:29.756Z,49.4
2022-08-07T12:21:39.880Z,47.3
2022-08-07T12:22:49.986Z,47.6
2022-08-07T12:24:00.117Z,47.3
2022-08-07T12:26:20.600Z,49.1
2022-08-07T12:27:29.471Z,50.8
2022-08-07T12:28:39.853Z,49.7
2022-08-07T12:29:49.972Z,48.3
2022-08-07T12:30:59.823Z,47.2
2022-08-07T12:33:20.320Z,47
2022-08-07T12:34:30.174Z,44.8
2022-08-07T12:35:40.291Z,45.8
2022-08-07T12:36:50.416Z,44.6
2022-08-07T12:38:00.534Z,46.2
2022-08-07T12:40:21.028Z,43.4
2022-08-07T12:41:30.881Z,42.9
2022-08-07T12:42:40.012Z,44
2022-08-07T12:43:50.142Z,42.9
2022-08-07T12:45:00.256Z,43.2
2022-08-07T12:46:10.376Z,44.3
2022-08-07T12:47:20.481Z,43.6
2022-08-07T12:48:30.868Z,42.6
2022-08-07T12:49:40.729Z,44.6
2022-08-07T12:50:50.840Z,45.2
2022-08-07T12:52:00.965Z,44.9
2022-08-07T12:53:11.069Z,45.4
2022-08-07T12:54:21.197Z,45.8
2022-08-07T12:55:31.318Z,45.6
2022-08-07T12:56:41.430Z,47
2022-08-07T12:57:50.567Z,46.8
2022-08-07T12:58:59.713Z,47.1
2022-08-07T13:01:18.957Z,48.2
2022-08-07T13:02:28.094Z,48.3
2022-08-07T13:03:38.219Z,47
2022-08-07T13:04:48.345Z,46.8
2022-08-07T13:05:58.448Z,49
2022-08-07T13:08:18.692Z,49.2
2022-08-07T13:09:28.807Z,48
2022-08-07T13:10:38.928Z,47.7
2022-08-07T13:12:59.165Z,47
2022-08-07T13:14:08.299Z,47.4
2022-08-07T13:15:17.438Z,48
2022-08-07T13:16:27.546Z,46.9
2022-08-07T13:17:37.662Z,46.8
2022-08-07T13:18:47.790Z,47.3
2022-08-07T13:19:58.165Z,45.5
2022-08-07T13:22:18.143Z,45.5
2022-08-07T13:23:28.259Z,44.8
2022-08-07T13:24:38.381Z,41.7
2022-08-07T13:25:48.488Z,43.8
2022-08-07T13:26:58.612Z,42.1
2022-08-07T13:28:08.721Z,40.6
2022-08-07T13:29:18.849Z,43.3
2022-08-07T13:30:28.233Z,42.9
2022-08-07T13:31:38.086Z,44.1
2022-08-07T13:32:48.208Z,43.1
2022-08-07T13:33:58.331Z,43.3
2022-08-07T13:36:18.555Z,46
2022-08-07T13:37:28.679Z,45.4
2022-08-07T13:38:38.802Z,45
2022-08-07T13:39:48.915Z,44.8
2022-08-07T13:40:59.037Z,44.2
2022-08-07T13:43:19.519Z,46.9
2022-08-07T13:44:29.646Z,46.8
2022-08-07T13:45:38.521Z,45.1
2022-08-07T13:46:48.625Z,45.4
2022-08-07T13:47:59.004Z,43.4
2022-08-07T13:50:18.976Z,42.5
2022-08-07T13:51:29.097Z,44.1
2022-08-07T13:52:39.223Z,43.7
2022-08-07T13:53:49.329Z,38.5
2022-08-07T13:54:59.716Z,36.9
2022-08-07T13:56:09.576Z,39.5
2022-08-07T13:57:19.685Z,38.4
2022-08-07T13:58:29.798Z,37.8
2022-08-07T13:59:39.926Z,37.6
2022-08-07T14:00:49.052Z,41.1
2022-08-07T14:01:59.178Z,42.2
2022-08-07T14:04:19.414Z,36.2
2022-08-07T14:05:29.521Z,39.6
2022-08-07T14:06:39.646Z,40.3
2022-08-07T14:07:50.014Z,38.3
2022-08-07T14:08:59.881Z,37.7
2022-08-07T14:10:10.007Z,35.7
2022-08-07T14:11:20.111Z,37.6
2022-08-07T14:12:30.230Z,39.1
2022-08-07T14:13:40.345Z,37.3
2022-08-07T14:14:49.501Z,34.8
2022-08-07T14:15:58.633Z,34.6
2022-08-07T14:18:18.864Z,32.3
2022-08-07T14:19:28.987Z,30.1
2022-08-07T14:20:39.089Z,31.1
2022-08-07T14:21:49.212Z,31.2
2022-08-07T14:22:59.334Z,31.9
2022-08-07T14:24:09.457Z,31.6
2022-08-07T14:25:19.561Z,31
2022-08-07T14:26:29.686Z,33.3
2022-08-07T14:27:39.808Z,35
2022-08-07T14:28:49.913Z,35.3
2022-08-07T14:30:00.308Z,39.3
2022-08-07T14:31:09.164Z,32.8
2022-08-07T14:32:19.288Z,32.3
2022-08-07T14:33:29.396Z,33.4
2022-08-07T14:34:39.517Z,32.4
2022-08-07T14:35:49.903Z,34.9
2022-08-07T14:36:59.758Z,35.8
2022-08-07T14:38:09.883Z,33.5
2022-08-07T14:39:19.981Z,31.5
2022-08-07T14:40:29.138Z,29.5
2022-08-07T14:41:38.529Z,30.9
2022-08-07T14:42:48.375Z,30.4
2022-08-07T14:43:58.496Z,30.1
2022-08-07T14:46:18.738Z,34.4
2022-08-07T14:47:28.847Z,35.5
2022-08-07T14:48:38.971Z,35.6
2022-08-07T14:49:49.091Z,32.5
2022-08-07T14:50:59.214Z,33.1
2022-08-07T14:53:19.443Z,31.8
2022-08-07T14:54:29.565Z,33
2022-08-07T14:55:38.698Z,32.9
2022-08-07T14:56:48.095Z,31.1
2022-08-07T14:57:57.955Z,31.7
2022-08-07T14:59:08.074Z,31.8
2022-08-07T15:00:18.190Z,33.7
2022-08-07T15:01:28.318Z,35.9
2022-08-07T15:02:38.421Z,36.5
2022-08-07T15:03:48.543Z,37.1
2022-08-07T15:04:58.671Z,36.7
2022-08-07T15:07:18.895Z,32.6
2022-08-07T15:08:29.007Z,33.2
2022-08-07T15:09:39.134Z,32.6
2022-08-07T15:10:49.256Z,34
2022-08-07T15:11:58.392Z,32.5
2022-08-07T15:14:18.616Z,33
2022-08-07T15:16:37.879Z,33.1
2022-08-07T15:17:47.034Z,32.3
2022-08-07T15:18:56.150Z,31.8
2022-08-07T15:20:06.273Z,30.6
2022-08-07T15:21:16.392Z,31.3
2022-08-07T15:22:26.511Z,31.4
2022-08-07T15:23:36.636Z,32.8
2022-08-07T15:24:46.740Z,32.8
2022-08-07T15:25:57.122Z,32.2
2022-08-07T15:28:17.098Z,33.1
2022-08-07T15:29:27.224Z,33.4
2022-08-07T15:30:37.331Z,32
2022-08-07T15:31:47.458Z,31.5
2022-08-07T15:32:57.571Z,31.4
2022-08-07T15:34:06.705Z,31.8
2022-08-07T15:35:16.820Z,32.5
2022-08-07T15:36:26.940Z,31.7
2022-08-07T15:37:37.066Z,34.6
2022-08-07T15:38:47.430Z,33.5
2022-08-07T15:39:57.295Z,34.1
2022-08-07T15:41:07.404Z,33.4
2022-08-07T15:42:17.525Z,32.4
2022-08-07T15:43:26.681Z,33.5
2022-08-07T15:44:35.815Z,34.7
2022-08-07T15:45:45.921Z,33.9
2022-08-07T15:46:56.036Z,37
2022-08-07T15:48:06.168Z,38.1
2022-08-07T15:49:16.531Z,39.6
2022-08-07T15:50:26.389Z,40.1
2022-08-07T15:51:36.509Z,39.8
2022-08-07T15:52:46.632Z,40.7
2022-08-07T15:53:56.759Z,42.4
2022-08-07T15:55:06.878Z,44
2022-08-07T15:56:16.005Z,44.7
2022-08-07T15:57:25.143Z,47.3
2022-08-07T15:58:35.272Z,46.4
2022-08-07T15:59:45.378Z,46.4
2022-08-07T16:00:55.761Z,44.7
2022-08-07T16:03:15.986Z,46.4
2022-08-07T16:04:26.101Z,47.2
2022-08-07T16:05:35.966Z,46.9
2022-08-07T16:06:46.091Z,47.8
2022-08-07T16:07:56.207Z,47.2
2022-08-07T16:09:06.330Z,47.2
2022-08-07T16:10:16.439Z,47.5
2022-08-07T16:11:26.563Z,47.9
2022-08-07T16:12:35.694Z,48.5
2022-08-07T16:13:45.814Z,48
2022-08-07T16:14:55.919Z,48
2022-08-07T16:16:06.044Z,48.5
2022-08-07T16:17:16.421Z,48.8
2022-08-07T16:18:26.269Z,48.8
2022-08-07T16:19:36.396Z,48.5
2022-08-07T16:20:46.507Z,48.2
2022-08-07T16:21:56.630Z,48.4
2022-08-07T16:23:06.754Z,48.6
2022-08-07T16:24:16.859Z,48.4
2022-08-07T16:25:26.984Z,49.2
2022-08-07T16:26:37.351Z,49.7
2022-08-07T16:27:46.226Z,49.4
2022-08-07T16:28:56.350Z,49.4
2022-08-07T16:31:16.583Z,49.6
2022-08-07T16:32:26.706Z,50.3
2022-08-07T16:33:36.809Z,50.7
2022-08-07T16:34:46.941Z,48.8
2022-08-07T16:35:57.049Z,49.9
2022-08-07T16:38:17.294Z,47.6
2022-08-07T16:39:27.400Z,47.3
2022-08-07T16:40:37.522Z,46.9
2022-08-07T16:41:47.890Z,46.5
2022-08-07T16:42:56.778Z,47.1
2022-08-07T16:44:06.882Z,48.9
2022-08-07T16:45:17.002Z,49.1
2022-08-07T16:46:27.120Z,48.5
2022-08-07T16:47:37.245Z,50
2022-08-07T16:48:47.354Z,50
2022-08-07T16:49:57.727Z,50.9
2022-08-07T16:51:07.599Z,51.7
2022-08-07T16:52:17.703Z,53.2
2022-08-07T16:53:27.831Z,52.1
2022-08-07T16:54:37.953Z,53.4
2022-08-07T16:55:48.056Z,55.3
2022-08-07T16:56:57.192Z,55.5
2022-08-07T16:58:07.321Z,56.4
2022-08-07T16:59:17.428Z,55.6
2022-08-07T17:00:27.806Z,57
2022-08-07T17:01:37.667Z,56.4
2022-08-07T17:02:47.794Z,55.4
2022-08-07T17:03:58.153Z,56.4
2022-08-07T17:06:18.148Z,57.5
2022-08-07T17:07:28.252Z,57.4
2022-08-07T17:08:38.381Z,57.5
2022-08-07T17:09:48.486Z,57.4
2022-08-07T17:10:58.614Z,57.4
2022-08-07T17:12:07.749Z,58.1
2022-08-07T17:13:17.872Z,59.4
2022-08-07T17:14:27.975Z,59.1
2022-08-07T17:15:38.102Z,58.9
2022-08-07T17:16:48.466Z,58.6
2022-08-07T17:17:58.337Z,59.1
2022-08-07T17:19:08.458Z,59.4
2022-08-07T17:20:18.566Z,58.6
2022-08-07T17:21:28.690Z,59.3
2022-08-07T17:22:39.056Z,59.2
2022-08-07T17:23:48.919Z,59.7
2022-08-07T17:24:59.044Z,59.5
2022-08-07T17:27:19.277Z,59.9
2022-08-07T17:28:28.407Z,60
2022-08-07T17:29:38.782Z,59.5
2022-08-07T17:30:48.647Z,60.7